sensor_id;sensor_type;location;lat;lon;timestamp;P1;durP1;ratioP1;P2;durP2;ratioP2
20375;SDS011;10347;51.828;6.466;2022-11-18T00:01:29;1.83;;;1.63;;
20375;SDS011;10347;51.828;6.466;2022-11-18T00:03:55;2.63;;;1.90;;
20375;SDS011;10347;51.828;6.466;2022-11-18T00:06:21;4.88;;;1.90;;
20375;SDS011;10347;51.828;6.466;2022-11-18T00:08:48;3.70;;;1.90;;
20375;SDS011;10347;51.828;6.466;2022-11-18T00:11:18;3.10;;;1.90;;
20375;SDS011;10347;51.828;6.466;2022-11-18T00:14:05;3.10;;;2.03;;
20375;SDS011;10347;51.828;6.466;2022-11-18T00:16:54;2.78;;;1.73;;
20375;SDS011;10347;51.828;6.466;2022-11-18T00:19:28;2.92;;;2.13;;
20375;SDS011;10347;51.828;6.466;2022-11-18T00:21:54;3.42;;;1.88;;
20375;SDS011;10347;51.828;6.466;2022-11-18T00:24:20;2.53;;;1.65;;
20375;SDS011;10347;51.828;6.466;2022-11-18T00:26:46;1.70;;;1.60;;
20375;SDS011;10347;51.828;6.466;2022-11-18T00:29:12;2.53;;;1.80;;
20375;SDS011;10347;51.828;6.466;2022-11-18T00:31:38;3.20;;;1.80;;
20375;SDS011;10347;51.828;6.466;2022-11-18T00:34:04;2.50;;;1.63;;
20375;SDS011;10347;51.828;6.466;2022-11-18T00:36:30;2.30;;;1.60;;
20375;SDS011;10347;51.828;6.466;2022-11-18T00:38:56;2.97;;;1.70;;
20375;SDS011;10347;51.828;6.466;2022-11-18T00:41:21;1.92;;;1.83;;
20375;SDS011;10347;51.828;6.466;2022-11-18T00:43:47;4.57;;;1.83;;
20375;SDS011;10347;51.828;6.466;2022-11-18T00:46:13;2.83;;;1.70;;
20375;SDS011;10347;51.828;6.466;2022-11-18T00:48:38;2.33;;;1.60;;
20375;SDS011;10347;51.828;6.466;2022-11-18T00:51:08;2.88;;;1.80;;
20375;SDS011;10347;51.828;6.466;2022-11-18T00:53:37;3.80;;;1.63;;
20375;SDS011;10347;51.828;6.466;2022-11-18T00:56:03;6.43;;;2.10;;
20375;SDS011;10347;51.828;6.466;2022-11-18T00:58:29;2.97;;;1.88;;
20375;SDS011;10347;51.828;6.466;2022-11-18T01:00:54;1.98;;;1.60;;
20375;SDS011;10347;51.828;6.466;2022-11-18T01:03:20;2.30;;;1.70;;
20375;SDS011;10347;51.828;6.466;2022-11-18T01:05:46;2.88;;;1.85;;
20375;SDS011;10347;51.828;6.466;2022-11-18T01:08:12;2.05;;;1.77;;
20375;SDS011;10347;51.828;6.466;2022-11-18T01:10:38;2.25;;;1.70;;
20375;SDS011;10347;51.828;6.466;2022-11-18T01:13:05;4.32;;;2.17;;
20375;SDS011;10347;51.828;6.466;2022-11-18T01:15:52;1.50;;;1.50;;
20375;SDS011;10347;51.828;6.466;2022-11-18T01:18:20;2.65;;;1.52;;
20375;SDS011;10347;51.828;6.466;2022-11-18T01:20:50;2.78;;;1.60;;
20375;SDS011;10347;51.828;6.466;2022-11-18T01:23:16;1.63;;;1.52;;
20375;SDS011;10347;51.828;6.466;2022-11-18T01:25:43;2.10;;;1.63;;
20375;SDS011;10347;51.828;6.466;2022-11-18T01:28:11;3.08;;;1.77;;
20375;SDS011;10347;51.828;6.466;2022-11-18T01:30:37;3.65;;;1.67;;
20375;SDS011;10347;51.828;6.466;2022-11-18T01:33:04;2.83;;;2.10;;
20375;SDS011;10347;51.828;6.466;2022-11-18T01:35:40;6.10;;;2.08;;
20375;SDS011;10347;51.828;6.466;2022-11-18T01:38:07;1.85;;;1.63;;
20375;SDS011;10347;51.828;6.466;2022-11-18T01:40:35;3.67;;;2.00;;
20375;SDS011;10347;51.828;6.466;2022-11-18T01:43:01;3.13;;;1.83;;
20375;SDS011;10347;51.828;6.466;2022-11-18T01:45:33;5.03;;;2.10;;
20375;SDS011;10347;51.828;6.466;2022-11-18T01:48:03;3.55;;;1.80;;
20375;SDS011;10347;51.828;6.466;2022-11-18T01:50:32;4.15;;;2.00;;
20375;SDS011;10347;51.828;6.466;2022-11-18T01:53:04;5.15;;;2.20;;
20375;SDS011;10347;51.828;6.466;2022-11-18T01:55:34;3.78;;;1.90;;
20375;SDS011;10347;51.828;6.466;2022-11-18T01:58:24;2.55;;;1.83;;
20375;SDS011;10347;51.828;6.466;2022-11-18T02:00:55;4.22;;;2.17;;
20375;SDS011;10347;51.828;6.466;2022-11-18T02:03:20;2.78;;;1.70;;
20375;SDS011;10347;51.828;6.466;2022-11-18T02:05:48;3.90;;;2.00;;
20375;SDS011;10347;51.828;6.466;2022-11-18T02:08:14;4.30;;;2.00;;
20375;SDS011;10347;51.828;6.466;2022-11-18T02:10:42;2.40;;;2.00;;
20375;SDS011;10347;51.828;6.466;2022-11-18T02:13:08;4.03;;;2.00;;
20375;SDS011;10347;51.828;6.466;2022-11-18T02:16:17;2.78;;;2.05;;
20375;SDS011;10347;51.828;6.466;2022-11-18T02:29:37;3.33;;;2.03;;
20375;SDS011;10347;51.828;6.466;2022-11-18T02:32:10;3.72;;;2.50;;
20375;SDS011;10347;51.828;6.466;2022-11-18T02:34:48;4.60;;;2.22;;
20375;SDS011;10347;51.828;6.466;2022-11-18T02:40:25;3.30;;;2.08;;
20375;SDS011;10347;51.828;6.466;2022-11-18T02:43:04;8.02;;;2.55;;
20375;SDS011;10347;51.828;6.466;2022-11-18T02:45:34;2.97;;;2.00;;
20375;SDS011;10347;51.828;6.466;2022-11-18T02:48:03;3.70;;;2.45;;
20375;SDS011;10347;51.828;6.466;2022-11-18T02:50:32;4.13;;;2.33;;
20375;SDS011;10347;51.828;6.466;2022-11-18T02:53:00;4.75;;;2.00;;
20375;SDS011;10347;51.828;6.466;2022-11-18T02:55:29;3.35;;;2.10;;
20375;SDS011;10347;51.828;6.466;2022-11-18T02:58:00;5.18;;;1.80;;
20375;SDS011;10347;51.828;6.466;2022-11-18T03:00:27;3.05;;;2.05;;
20375;SDS011;10347;51.828;6.466;2022-11-18T03:02:53;4.30;;;2.20;;
20375;SDS011;10347;51.828;6.466;2022-11-18T03:05:21;3.22;;;2.13;;
20375;SDS011;10347;51.828;6.466;2022-11-18T03:07:55;3.60;;;2.33;;
20375;SDS011;10347;51.828;6.466;2022-11-18T03:10:26;5.40;;;2.38;;
20375;SDS011;10347;51.828;6.466;2022-11-18T03:13:01;3.92;;;2.10;;
20375;SDS011;10347;51.828;6.466;2022-11-18T03:15:54;3.50;;;2.05;;
20375;SDS011;10347;51.828;6.466;2022-11-18T03:23:47;5.80;;;2.53;;
20375;SDS011;10347;51.828;6.466;2022-11-18T03:26:22;3.10;;;2.30;;
20375;SDS011;10347;51.828;6.466;2022-11-18T03:28:58;5.10;;;2.20;;
20375;SDS011;10347;51.828;6.466;2022-11-18T03:31:55;3.33;;;2.10;;
20375;SDS011;10347;51.828;6.466;2022-11-18T03:34:28;4.95;;;2.58;;
20375;SDS011;10347;51.828;6.466;2022-11-18T03:37:06;3.80;;;2.53;;
20375;SDS011;10347;51.828;6.466;2022-11-18T03:39:36;2.67;;;2.35;;
20375;SDS011;10347;51.828;6.466;2022-11-18T03:44:35;4.20;;;2.38;;
20375;SDS011;10347;51.828;6.466;2022-11-18T03:47:10;3.08;;;2.33;;
20375;SDS011;10347;51.828;6.466;2022-11-18T03:49:42;2.67;;;2.30;;
20375;SDS011;10347;51.828;6.466;2022-11-18T03:52:14;3.60;;;2.33;;
20375;SDS011;10347;51.828;6.466;2022-11-18T03:54:44;6.43;;;2.60;;
20375;SDS011;10347;51.828;6.466;2022-11-18T03:57:14;4.35;;;2.38;;
20375;SDS011;10347;51.828;6.466;2022-11-18T03:59:49;6.32;;;2.78;;
20375;SDS011;10347;51.828;6.466;2022-11-18T04:02:21;4.68;;;2.88;;
20375;SDS011;10347;51.828;6.466;2022-11-18T04:04:49;5.50;;;2.85;;
20375;SDS011;10347;51.828;6.466;2022-11-18T04:10:02;4.25;;;2.70;;
20375;SDS011;10347;51.828;6.466;2022-11-18T04:13:23;2.60;;;2.25;;
20375;SDS011;10347;51.828;6.466;2022-11-18T04:15:37;4.05;;;2.40;;
20375;SDS011;10347;51.828;6.466;2022-11-18T04:18:05;4.88;;;2.45;;
20375;SDS011;10347;51.828;6.466;2022-11-18T04:20:32;5.90;;;2.70;;
20375;SDS011;10347;51.828;6.466;2022-11-18T04:22:58;4.78;;;2.30;;
20375;SDS011;10347;51.828;6.466;2022-11-18T04:25:24;2.67;;;2.40;;
20375;SDS011;10347;51.828;6.466;2022-11-18T04:27:50;3.25;;;2.10;;
20375;SDS011;10347;51.828;6.466;2022-11-18T04:30:16;2.38;;;2.17;;
20375;SDS011;10347;51.828;6.466;2022-11-18T04:32:41;5.85;;;2.50;;
20375;SDS011;10347;51.828;6.466;2022-11-18T04:35:07;6.47;;;2.40;;
20375;SDS011;10347;51.828;6.466;2022-11-18T04:37:33;3.22;;;2.17;;
20375;SDS011;10347;51.828;6.466;2022-11-18T04:39:59;4.53;;;2.40;;
20375;SDS011;10347;51.828;6.466;2022-11-18T04:42:24;4.10;;;2.45;;
20375;SDS011;10347;51.828;6.466;2022-11-18T04:44:50;3.47;;;2.20;;
20375;SDS011;10347;51.828;6.466;2022-11-18T04:47:15;4.53;;;2.30;;
20375;SDS011;10347;51.828;6.466;2022-11-18T04:49:41;6.82;;;2.63;;
20375;SDS011;10347;51.828;6.466;2022-11-18T04:52:07;2.97;;;2.08;;
20375;SDS011;10347;51.828;6.466;2022-11-18T04:54:33;2.63;;;1.90;;
20375;SDS011;10347;51.828;6.466;2022-11-18T04:56:59;3.55;;;2.10;;
20375;SDS011;10347;51.828;6.466;2022-11-18T04:59:26;3.13;;;2.13;;
20375;SDS011;10347;51.828;6.466;2022-11-18T05:01:52;4.60;;;2.33;;
20375;SDS011;10347;51.828;6.466;2022-11-18T05:04:20;6.47;;;2.42;;
20375;SDS011;10347;51.828;6.466;2022-11-18T05:06:47;3.80;;;2.45;;
20375;SDS011;10347;51.828;6.466;2022-11-18T05:09:13;4.18;;;2.28;;
20375;SDS011;10347;51.828;6.466;2022-11-18T05:11:39;4.30;;;2.30;;
20375;SDS011;10347;51.828;6.466;2022-11-18T05:14:26;5.32;;;2.65;;
20375;SDS011;10347;51.828;6.466;2022-11-18T05:16:53;4.32;;;2.53;;
20375;SDS011;10347;51.828;6.466;2022-11-18T05:19:20;5.93;;;2.55;;
20375;SDS011;10347;51.828;6.466;2022-11-18T05:21:45;3.00;;;2.25;;
20375;SDS011;10347;51.828;6.466;2022-11-18T05:24:11;2.28;;;2.08;;
20375;SDS011;10347;51.828;6.466;2022-11-18T05:26:37;6.30;;;2.50;;
20375;SDS011;10347;51.828;6.466;2022-11-18T05:29:03;3.00;;;2.13;;
20375;SDS011;10347;51.828;6.466;2022-11-18T05:31:28;6.53;;;2.70;;
20375;SDS011;10347;51.828;6.466;2022-11-18T05:33:54;4.57;;;2.55;;
20375;SDS011;10347;51.828;6.466;2022-11-18T05:36:20;3.65;;;2.50;;
20375;SDS011;10347;51.828;6.466;2022-11-18T05:38:46;3.97;;;2.30;;
20375;SDS011;10347;51.828;6.466;2022-11-18T05:41:12;5.22;;;2.38;;
20375;SDS011;10347;51.828;6.466;2022-11-18T05:43:57;4.95;;;2.33;;
20375;SDS011;10347;51.828;6.466;2022-11-18T05:46:23;4.20;;;2.10;;
20375;SDS011;10347;51.828;6.466;2022-11-18T05:48:49;3.33;;;2.40;;
20375;SDS011;10347;51.828;6.466;2022-11-18T05:51:15;5.10;;;2.42;;
20375;SDS011;10347;51.828;6.466;2022-11-18T05:53:41;5.30;;;3.00;;
20375;SDS011;10347;51.828;6.466;2022-11-18T05:58:59;2.80;;;2.17;;
20375;SDS011;10347;51.828;6.466;2022-11-18T06:01:29;3.40;;;2.22;;
20375;SDS011;10347;51.828;6.466;2022-11-18T06:06:58;7.70;;;2.65;;
20375;SDS011;10347;51.828;6.466;2022-11-18T06:09:30;4.25;;;2.38;;
20375;SDS011;10347;51.828;6.466;2022-11-18T06:11:59;4.57;;;2.58;;
20375;SDS011;10347;51.828;6.466;2022-11-18T06:14:28;4.13;;;2.60;;
20375;SDS011;10347;51.828;6.466;2022-11-18T06:17:01;4.03;;;2.50;;
20375;SDS011;10347;51.828;6.466;2022-11-18T06:19:30;4.35;;;2.55;;
20375;SDS011;10347;51.828;6.466;2022-11-18T06:21:57;5.25;;;2.75;;
20375;SDS011;10347;51.828;6.466;2022-11-18T06:24:23;4.53;;;2.28;;
20375;SDS011;10347;51.828;6.466;2022-11-18T06:26:49;5.15;;;2.70;;
20375;SDS011;10347;51.828;6.466;2022-11-18T06:29:15;6.75;;;2.30;;
20375;SDS011;10347;51.828;6.466;2022-11-18T06:31:44;3.22;;;2.63;;
20375;SDS011;10347;51.828;6.466;2022-11-18T06:34:09;4.00;;;2.40;;
20375;SDS011;10347;51.828;6.466;2022-11-18T06:36:35;3.63;;;2.28;;
20375;SDS011;10347;51.828;6.466;2022-11-18T06:39:01;4.45;;;2.80;;
20375;SDS011;10347;51.828;6.466;2022-11-18T06:41:30;4.60;;;2.00;;
20375;SDS011;10347;51.828;6.466;2022-11-18T06:43:57;3.40;;;2.20;;
20375;SDS011;10347;51.828;6.466;2022-11-18T06:46:22;3.17;;;2.03;;
20375;SDS011;10347;51.828;6.466;2022-11-18T06:49:07;4.28;;;2.20;;
20375;SDS011;10347;51.828;6.466;2022-11-18T06:51:33;1.73;;;1.63;;
20375;SDS011;10347;51.828;6.466;2022-11-18T06:53:59;2.70;;;1.85;;
20375;SDS011;10347;51.828;6.466;2022-11-18T06:56:24;4.10;;;2.10;;
20375;SDS011;10347;51.828;6.466;2022-11-18T06:58:53;4.00;;;2.45;;
20375;SDS011;10347;51.828;6.466;2022-11-18T07:01:22;4.30;;;2.40;;
20375;SDS011;10347;51.828;6.466;2022-11-18T07:03:50;4.90;;;2.17;;
20375;SDS011;10347;51.828;6.466;2022-11-18T07:06:17;4.20;;;1.83;;
20375;SDS011;10347;51.828;6.466;2022-11-18T07:08:44;2.58;;;1.80;;
20375;SDS011;10347;51.828;6.466;2022-11-18T07:11:11;2.25;;;2.05;;
20375;SDS011;10347;51.828;6.466;2022-11-18T07:13:38;2.10;;;1.90;;
20375;SDS011;10347;51.828;6.466;2022-11-18T07:16:05;3.38;;;1.80;;
20375;SDS011;10347;51.828;6.466;2022-11-18T07:18:33;2.40;;;1.70;;
20375;SDS011;10347;51.828;6.466;2022-11-18T07:21:03;5.63;;;1.98;;
20375;SDS011;10347;51.828;6.466;2022-11-18T07:23:30;3.53;;;1.90;;
20375;SDS011;10347;51.828;6.466;2022-11-18T07:25:57;2.10;;;1.70;;
20375;SDS011;10347;51.828;6.466;2022-11-18T07:28:23;3.47;;;1.80;;
20375;SDS011;10347;51.828;6.466;2022-11-18T07:30:49;2.10;;;1.95;;
20375;SDS011;10347;51.828;6.466;2022-11-18T07:33:15;2.88;;;1.80;;
20375;SDS011;10347;51.828;6.466;2022-11-18T07:35:41;1.75;;;1.65;;
20375;SDS011;10347;51.828;6.466;2022-11-18T07:38:06;2.70;;;1.83;;
20375;SDS011;10347;51.828;6.466;2022-11-18T07:40:32;2.17;;;1.70;;
20375;SDS011;10347;51.828;6.466;2022-11-18T07:43:00;2.55;;;1.92;;
20375;SDS011;10347;51.828;6.466;2022-11-18T07:45:25;2.13;;;1.80;;
20375;SDS011;10347;51.828;6.466;2022-11-18T07:47:51;2.30;;;2.10;;
20375;SDS011;10347;51.828;6.466;2022-11-18T07:50:16;4.97;;;2.53;;
20375;SDS011;10347;51.828;6.466;2022-11-18T07:52:42;3.13;;;2.40;;
20375;SDS011;10347;51.828;6.466;2022-11-18T07:55:08;3.20;;;2.22;;
20375;SDS011;10347;51.828;6.466;2022-11-18T07:57:34;4.25;;;2.53;;
20375;SDS011;10347;51.828;6.466;2022-11-18T07:59:59;5.40;;;3.15;;
20375;SDS011;10347;51.828;6.466;2022-11-18T08:02:25;4.38;;;3.03;;
20375;SDS011;10347;51.828;6.466;2022-11-18T08:04:51;4.40;;;2.13;;
20375;SDS011;10347;51.828;6.466;2022-11-18T08:07:16;3.00;;;2.38;;
20375;SDS011;10347;51.828;6.466;2022-11-18T08:09:42;4.88;;;2.53;;
20375;SDS011;10347;51.828;6.466;2022-11-18T08:12:07;3.00;;;2.50;;
20375;SDS011;10347;51.828;6.466;2022-11-18T08:14:33;3.20;;;2.58;;
20375;SDS011;10347;51.828;6.466;2022-11-18T08:16:58;4.65;;;2.58;;
20375;SDS011;10347;51.828;6.466;2022-11-18T08:19:24;10.80;;;2.58;;
20375;SDS011;10347;51.828;6.466;2022-11-18T08:21:49;3.72;;;2.42;;
20375;SDS011;10347;51.828;6.466;2022-11-18T08:24:15;3.75;;;2.33;;
20375;SDS011;10347;51.828;6.466;2022-11-18T08:26:40;5.60;;;2.85;;
20375;SDS011;10347;51.828;6.466;2022-11-18T08:29:06;7.65;;;2.72;;
20375;SDS011;10347;51.828;6.466;2022-11-18T08:31:32;2.55;;;2.13;;
20375;SDS011;10347;51.828;6.466;2022-11-18T08:34:01;5.38;;;2.60;;
20375;SDS011;10347;51.828;6.466;2022-11-18T08:36:29;2.75;;;2.28;;
20375;SDS011;10347;51.828;6.466;2022-11-18T08:38:57;4.15;;;2.00;;
20375;SDS011;10347;51.828;6.466;2022-11-18T08:41:44;6.15;;;2.30;;
20375;SDS011;10347;51.828;6.466;2022-11-18T08:44:11;3.10;;;2.53;;
20375;SDS011;10347;51.828;6.466;2022-11-18T08:46:39;3.22;;;2.20;;
20375;SDS011;10347;51.828;6.466;2022-11-18T08:49:04;2.72;;;1.95;;
20375;SDS011;10347;51.828;6.466;2022-11-18T08:51:30;2.70;;;2.08;;
20375;SDS011;10347;51.828;6.466;2022-11-18T08:53:56;7.45;;;2.80;;
20375;SDS011;10347;51.828;6.466;2022-11-18T08:56:22;3.97;;;2.30;;
20375;SDS011;10347;51.828;6.466;2022-11-18T08:58:49;3.72;;;1.85;;
20375;SDS011;10347;51.828;6.466;2022-11-18T09:01:15;5.45;;;2.65;;
20375;SDS011;10347;51.828;6.466;2022-11-18T09:03:41;2.88;;;1.85;;
20375;SDS011;10347;51.828;6.466;2022-11-18T09:06:11;2.88;;;2.00;;
20375;SDS011;10347;51.828;6.466;2022-11-18T09:08:38;4.25;;;1.90;;
20375;SDS011;10347;51.828;6.466;2022-11-18T09:11:07;2.38;;;2.00;;
20375;SDS011;10347;51.828;6.466;2022-11-18T09:13:35;2.63;;;1.92;;
20375;SDS011;10347;51.828;6.466;2022-11-18T09:16:01;2.30;;;2.10;;
20375;SDS011;10347;51.828;6.466;2022-11-18T09:18:27;5.30;;;2.45;;
20375;SDS011;10347;51.828;6.466;2022-11-18T09:20:54;2.40;;;1.98;;
20375;SDS011;10347;51.828;6.466;2022-11-18T09:23:23;2.10;;;1.88;;
20375;SDS011;10347;51.828;6.466;2022-11-18T09:25:55;3.60;;;1.95;;
20375;SDS011;10347;51.828;6.466;2022-11-18T09:28:22;2.20;;;2.00;;
20375;SDS011;10347;51.828;6.466;2022-11-18T09:30:48;1.98;;;1.80;;
20375;SDS011;10347;51.828;6.466;2022-11-18T09:33:13;3.35;;;2.00;;
20375;SDS011;10347;51.828;6.466;2022-11-18T09:35:42;3.03;;;1.75;;
20375;SDS011;10347;51.828;6.466;2022-11-18T09:38:08;2.28;;;1.88;;
20375;SDS011;10347;51.828;6.466;2022-11-18T09:46:23;2.95;;;1.90;;
20375;SDS011;10347;51.828;6.466;2022-11-18T09:48:57;2.63;;;1.92;;
20375;SDS011;10347;51.828;6.466;2022-11-18T09:51:41;2.45;;;1.80;;
20375;SDS011;10347;51.828;6.466;2022-11-18T09:54:10;2.20;;;1.83;;
20375;SDS011;10347;51.828;6.466;2022-11-18T09:56:41;2.70;;;1.88;;
20375;SDS011;10347;51.828;6.466;2022-11-18T09:59:09;2.47;;;1.85;;
20375;SDS011;10347;51.828;6.466;2022-11-18T10:01:37;3.78;;;1.85;;
20375;SDS011;10347;51.828;6.466;2022-11-18T10:04:03;3.70;;;1.98;;
20375;SDS011;10347;51.828;6.466;2022-11-18T10:06:30;2.28;;;1.50;;
20375;SDS011;10347;51.828;6.466;2022-11-18T10:22:57;1.98;;;1.70;;
20375;SDS011;10347;51.828;6.466;2022-11-18T10:25:47;2.35;;;1.60;;
20375;SDS011;10347;51.828;6.466;2022-11-18T10:30:44;2.17;;;1.88;;
20375;SDS011;10347;51.828;6.466;2022-11-18T10:33:24;3.53;;;2.08;;
20375;SDS011;10347;51.828;6.466;2022-11-18T10:36:07;2.13;;;1.60;;
20375;SDS011;10347;51.828;6.466;2022-11-18T10:38:36;3.55;;;1.90;;
20375;SDS011;10347;51.828;6.466;2022-11-18T10:41:02;3.20;;;1.98;;
20375;SDS011;10347;51.828;6.466;2022-11-18T10:51:34;3.67;;;2.17;;
20375;SDS011;10347;51.828;6.466;2022-11-18T10:54:08;4.65;;;2.47;;
20375;SDS011;10347;51.828;6.466;2022-11-18T10:56:52;3.50;;;2.10;;
20375;SDS011;10347;51.828;6.466;2022-11-18T11:02:18;3.83;;;2.20;;
20375;SDS011;10347;51.828;6.466;2022-11-18T11:04:50;3.47;;;2.17;;
20375;SDS011;10347;51.828;6.466;2022-11-18T11:07:33;3.05;;;2.03;;
20375;SDS011;10347;51.828;6.466;2022-11-18T11:12:30;2.50;;;1.95;;
20375;SDS011;10347;51.828;6.466;2022-11-18T11:15:02;3.15;;;1.70;;
20375;SDS011;10347;51.828;6.466;2022-11-18T11:17:31;2.47;;;1.80;;
20375;SDS011;10347;51.828;6.466;2022-11-18T11:22:34;4.43;;;2.00;;
20375;SDS011;10347;51.828;6.466;2022-11-18T11:25:00;2.33;;;1.80;;
20375;SDS011;10347;51.828;6.466;2022-11-18T11:35:16;2.00;;;1.80;;
20375;SDS011;10347;51.828;6.466;2022-11-18T11:37:57;4.63;;;2.10;;
20375;SDS011;10347;51.828;6.466;2022-11-18T11:40:37;3.95;;;2.15;;
20375;SDS011;10347;51.828;6.466;2022-11-18T11:43:37;2.42;;;1.80;;
20375;SDS011;10347;51.828;6.466;2022-11-18T11:49:18;4.32;;;2.10;;
20375;SDS011;10347;51.828;6.466;2022-11-18T11:55:06;3.70;;;2.00;;
20375;SDS011;10347;51.828;6.466;2022-11-18T12:00:28;4.93;;;2.30;;
20375;SDS011;10347;51.828;6.466;2022-11-18T12:06:01;6.70;;;2.60;;
20375;SDS011;10347;51.828;6.466;2022-11-18T12:08:28;3.10;;;2.00;;
20375;SDS011;10347;51.828;6.466;2022-11-18T12:10:57;4.40;;;2.15;;
20375;SDS011;10347;51.828;6.466;2022-11-18T12:26:46;2.28;;;1.95;;
20375;SDS011;10347;51.828;6.466;2022-11-18T12:31:45;5.93;;;1.83;;
20375;SDS011;10347;51.828;6.466;2022-11-18T12:36:50;2.85;;;1.52;;
20375;SDS011;10347;51.828;6.466;2022-11-18T12:41:55;2.72;;;1.70;;
20375;SDS011;10347;51.828;6.466;2022-11-18T12:44:41;3.58;;;1.85;;
20375;SDS011;10347;51.828;6.466;2022-11-18T12:47:08;3.10;;;1.85;;
20375;SDS011;10347;51.828;6.466;2022-11-18T12:52:01;2.83;;;1.60;;
20375;SDS011;10347;51.828;6.466;2022-11-18T12:54:32;2.90;;;1.70;;
20375;SDS011;10347;51.828;6.466;2022-11-18T12:57:03;3.28;;;1.63;;
20375;SDS011;10347;51.828;6.466;2022-11-18T12:59:41;2.75;;;1.73;;
20375;SDS011;10347;51.828;6.466;2022-11-18T13:04:35;2.35;;;1.88;;
20375;SDS011;10347;51.828;6.466;2022-11-18T13:07:02;2.75;;;1.92;;
20375;SDS011;10347;51.828;6.466;2022-11-18T13:09:51;1.90;;;1.80;;
20375;SDS011;10347;51.828;6.466;2022-11-18T13:12:17;5.45;;;2.00;;
20375;SDS011;10347;51.828;6.466;2022-11-18T13:14:43;3.67;;;1.95;;
20375;SDS011;10347;51.828;6.466;2022-11-18T13:17:29;4.88;;;2.40;;
20375;SDS011;10347;51.828;6.466;2022-11-18T13:25:53;5.75;;;2.08;;
20375;SDS011;10347;51.828;6.466;2022-11-18T13:28:37;2.33;;;2.13;;
20375;SDS011;10347;51.828;6.466;2022-11-18T13:31:18;3.38;;;1.92;;
20375;SDS011;10347;51.828;6.466;2022-11-18T13:33:50;4.95;;;1.83;;
20375;SDS011;10347;51.828;6.466;2022-11-18T13:38:59;4.95;;;1.95;;
20375;SDS011;10347;51.828;6.466;2022-11-18T13:41:27;5.90;;;2.08;;
20375;SDS011;10347;51.828;6.466;2022-11-18T13:44:09;5.50;;;2.30;;
20375;SDS011;10347;51.828;6.466;2022-11-18T13:46:45;2.65;;;1.88;;
20375;SDS011;10347;51.828;6.466;2022-11-18T13:49:17;7.82;;;2.40;;
20375;SDS011;10347;51.828;6.466;2022-11-18T13:51:47;5.15;;;2.25;;
20375;SDS011;10347;51.828;6.466;2022-11-18T13:54:19;4.82;;;2.53;;
20375;SDS011;10347;51.828;6.466;2022-11-18T13:56:47;6.18;;;2.63;;
20375;SDS011;10347;51.828;6.466;2022-11-18T13:59:14;6.00;;;2.40;;
20375;SDS011;10347;51.828;6.466;2022-11-18T14:01:46;6.15;;;2.33;;
20375;SDS011;10347;51.828;6.466;2022-11-18T14:04:21;4.30;;;2.22;;
20375;SDS011;10347;51.828;6.466;2022-11-18T14:06:49;4.53;;;2.30;;
20375;SDS011;10347;51.828;6.466;2022-11-18T14:09:27;2.30;;;1.85;;
20375;SDS011;10347;51.828;6.466;2022-11-18T14:14:27;4.78;;;2.22;;
20375;SDS011;10347;51.828;6.466;2022-11-18T14:17:01;2.80;;;1.50;;
20375;SDS011;10347;51.828;6.466;2022-11-18T14:19:30;6.53;;;2.20;;
20375;SDS011;10347;51.828;6.466;2022-11-18T14:22:10;2.65;;;1.67;;
20375;SDS011;10347;51.828;6.466;2022-11-18T14:24:39;4.93;;;1.98;;
20375;SDS011;10347;51.828;6.466;2022-11-18T14:35:52;6.20;;;1.63;;
20375;SDS011;10347;51.828;6.466;2022-11-18T14:41:00;2.70;;;1.50;;
20375;SDS011;10347;51.828;6.466;2022-11-18T14:43:27;3.92;;;1.42;;
20375;SDS011;10347;51.828;6.466;2022-11-18T14:45:58;3.40;;;1.80;;
20375;SDS011;10347;51.828;6.466;2022-11-18T14:48:26;1.55;;;1.45;;
20375;SDS011;10347;51.828;6.466;2022-11-18T14:50:52;3.78;;;1.80;;
20375;SDS011;10347;51.828;6.466;2022-11-18T14:53:18;3.20;;;1.85;;
20375;SDS011;10347;51.828;6.466;2022-11-18T14:55:46;2.40;;;1.50;;
20375;SDS011;10347;51.828;6.466;2022-11-18T14:58:14;4.40;;;1.60;;
20375;SDS011;10347;51.828;6.466;2022-11-18T15:00:43;4.10;;;2.00;;
20375;SDS011;10347;51.828;6.466;2022-11-18T15:03:11;4.38;;;1.85;;
20375;SDS011;10347;51.828;6.466;2022-11-18T15:05:37;3.83;;;1.90;;
20375;SDS011;10347;51.828;6.466;2022-11-18T15:08:03;3.85;;;1.55;;
20375;SDS011;10347;51.828;6.466;2022-11-18T15:10:28;3.58;;;1.40;;
20375;SDS011;10347;51.828;6.466;2022-11-18T15:12:54;2.05;;;1.80;;
20375;SDS011;10347;51.828;6.466;2022-11-18T15:15:20;2.63;;;1.67;;
20375;SDS011;10347;51.828;6.466;2022-11-18T15:17:46;3.72;;;1.73;;
20375;SDS011;10347;51.828;6.466;2022-11-18T15:20:12;1.90;;;1.70;;
20375;SDS011;10347;51.828;6.466;2022-11-18T15:22:41;3.47;;;1.80;;
20375;SDS011;10347;51.828;6.466;2022-11-18T15:25:07;2.00;;;1.70;;
20375;SDS011;10347;51.828;6.466;2022-11-18T15:27:33;5.25;;;1.60;;
20375;SDS011;10347;51.828;6.466;2022-11-18T15:29:59;6.25;;;1.77;;
20375;SDS011;10347;51.828;6.466;2022-11-18T15:32:24;3.40;;;1.77;;
20375;SDS011;10347;51.828;6.466;2022-11-18T15:34:50;3.30;;;1.90;;
20375;SDS011;10347;51.828;6.466;2022-11-18T15:37:16;3.58;;;1.67;;
20375;SDS011;10347;51.828;6.466;2022-11-18T15:39:41;3.92;;;2.08;;
20375;SDS011;10347;51.828;6.466;2022-11-18T15:42:08;3.42;;;1.98;;
20375;SDS011;10347;51.828;6.466;2022-11-18T15:44:33;3.08;;;1.80;;
20375;SDS011;10347;51.828;6.466;2022-11-18T15:46:59;3.80;;;2.33;;
20375;SDS011;10347;51.828;6.466;2022-11-18T15:49:25;5.18;;;2.72;;
20375;SDS011;10347;51.828;6.466;2022-11-18T15:51:51;3.80;;;2.35;;
20375;SDS011;10347;51.828;6.466;2022-11-18T15:54:17;5.32;;;2.53;;
20375;SDS011;10347;51.828;6.466;2022-11-18T15:56:43;3.08;;;2.20;;
20375;SDS011;10347;51.828;6.466;2022-11-18T15:59:10;4.78;;;2.47;;
20375;SDS011;10347;51.828;6.466;2022-11-18T16:01:38;4.78;;;2.40;;
20375;SDS011;10347;51.828;6.466;2022-11-18T16:04:06;4.70;;;2.47;;
20375;SDS011;10347;51.828;6.466;2022-11-18T16:06:32;4.43;;;2.60;;
20375;SDS011;10347;51.828;6.466;2022-11-18T16:08:59;5.35;;;2.95;;
20375;SDS011;10347;51.828;6.466;2022-11-18T16:11:25;3.72;;;2.60;;
20375;SDS011;10347;51.828;6.466;2022-11-18T16:14:11;3.22;;;2.58;;
20375;SDS011;10347;51.828;6.466;2022-11-18T16:16:38;3.58;;;3.00;;
20375;SDS011;10347;51.828;6.466;2022-11-18T16:19:06;4.35;;;3.17;;
20375;SDS011;10347;51.828;6.466;2022-11-18T16:21:35;7.57;;;3.60;;
20375;SDS011;10347;51.828;6.466;2022-11-18T16:24:03;6.00;;;4.13;;
20375;SDS011;10347;51.828;6.466;2022-11-18T16:26:30;5.90;;;4.95;;
20375;SDS011;10347;51.828;6.466;2022-11-18T16:28:57;9.27;;;6.18;;
20375;SDS011;10347;51.828;6.466;2022-11-18T16:31:24;7.55;;;5.30;;
20375;SDS011;10347;51.828;6.466;2022-11-18T16:36:39;4.88;;;3.42;;
20375;SDS011;10347;51.828;6.466;2022-11-18T16:39:06;4.05;;;3.25;;
20375;SDS011;10347;51.828;6.466;2022-11-18T16:41:33;3.00;;;2.55;;
20375;SDS011;10347;51.828;6.466;2022-11-18T16:44:00;2.80;;;2.58;;
20375;SDS011;10347;51.828;6.466;2022-11-18T16:46:27;6.57;;;2.47;;
20375;SDS011;10347;51.828;6.466;2022-11-18T16:48:54;3.13;;;2.38;;
20375;SDS011;10347;51.828;6.466;2022-11-18T16:51:24;7.40;;;2.30;;
20375;SDS011;10347;51.828;6.466;2022-11-18T16:53:51;2.45;;;2.20;;
20375;SDS011;10347;51.828;6.466;2022-11-18T16:56:19;4.53;;;2.13;;
20375;SDS011;10347;51.828;6.466;2022-11-18T16:58:46;4.07;;;2.28;;
20375;SDS011;10347;51.828;6.466;2022-11-18T17:01:11;6.63;;;2.65;;
20375;SDS011;10347;51.828;6.466;2022-11-18T17:03:37;6.30;;;4.10;;
20375;SDS011;10347;51.828;6.466;2022-11-18T17:06:03;8.50;;;5.22;;
20375;SDS011;10347;51.828;6.466;2022-11-18T17:08:32;14.38;;;7.38;;
20375;SDS011;10347;51.828;6.466;2022-11-18T17:11:06;17.10;;;9.90;;
20375;SDS011;10347;51.828;6.466;2022-11-18T17:13:33;15.05;;;9.55;;
20375;SDS011;10347;51.828;6.466;2022-11-18T17:16:02;15.00;;;8.00;;
20375;SDS011;10347;51.828;6.466;2022-11-18T17:18:28;7.68;;;4.95;;
20375;SDS011;10347;51.828;6.466;2022-11-18T17:20:54;6.60;;;4.20;;